Airfield :
LOGIN :

Register | Disclaimer

   EN    FR    IT 

 










Legend :    VFR   Marginal VFR   IFR   Intensive IFR   Very Intensive IFR
Visi :
Ceiling :
>= 8 km
>= 3000ft
5 to 8 km
1000 to 3000 ft
1500m to 5 km
500 to 1000 ft
800 to 1500m
200 to 500 ft
< 800m
< 200 ft
Symbols :   Thunderstorms  Fog  Heavy snow  Heavy precipitations  Wind > 20 kt
SIGMETs :     Misc.  Thunderstorms  Icing  Turbulence  Mountain Waves  Volcanic Ashes







- Airport Elevation : 755 ft
- IATA code : DRS


EDDC - Dresden Klotzsche

CURRENT METAR :
  • 151520Z 21005KT 9999 FEW037 01/M01 Q0998 R04/D NOSIG

EXPIRED METARs :
  • 151450Z 25004KT 9999 FEW042 02/M01 Q0998 R04/CLRD// NOSIG
  • 151420Z 25004KT 9999 BKN042 03/00 Q0998 R04/D NOSIG
  • 151350Z 25005KT 210V280 9999 FEW024 BKN042 03/01 Q0997 R04/690195 NOSIG
  • 151320Z 27007KT 240V320 9999 FEW019 BKN042 03/01 Q0997 R04/690195 NOSIG
  • 151250Z 27006KT 230V300 9999 SCT015 BKN040 03/00 Q0997 R04/690195 NOSIG

TAF TAF EDDC
Valid from the 15 at 12:00 until the 16 at 12:00 UTC


151100Z 1512/1612 25007KT 9999 BKN012
BECMG 1512/1515 BKN015
TEMPO 1522/1612 BKN012
PROB30
TEMPO 1522/1610 BKN008
No reported NOTAMs for that airfield.



MET'MAP, your aeronautical weather chart ! - Copyright ORBIFLY December 2007 - Disclaimer

ORBIFLY MET'MAP TEAM :

Programming & Development : Alexandra Zaïnal
Concept & Development : Baudouin d'Aumeries
Co-Development & Prog : Marc-Olivier Méhu
Technical & hardware support : Manuel Goepfert

Contact : metmap@orbifly.com




SOURCES & CREDITS :

   NOAA